Time;durP1;ratioP1;P1;durP2;ratioP2;P2;SDS_P1;SDS_P2;PMS_P1;PMS_P2;Temp;Humidity;BMP_temperature;BMP_pressure;BME280_temperature;BME280_humidity;BME280_pressure;Samples;Min_cycle;Max_cycle;Signal;HPM_P1;HPM_P2
2023/03/05 00:00:17;;;;;;;3.83;3.53;;;;;;;18.57;43.31;97542.59;4969005;28;20206;-92
2023/03/05 00:02:44;;;;;;;3.90;3.50;;;;;;;18.91;43.35;97620.41;4952891;28;20223;-92
2023/03/05 00:05:10;;;;;;;4.07;3.67;;;;;;;18.25;43.22;97482.72;4971121;28;20210;-92
2023/03/05 00:07:37;;;;;;;4.30;3.90;;;;;;;18.38;43.23;97500.25;4997154;28;20574;-91
2023/03/05 00:10:04;;;;;;;4.27;3.87;;;;;;;19.32;43.02;97668.84;4964525;28;20684;-93
2023/03/05 00:12:31;;;;;;;3.93;3.57;;;;;;;18.87;43.18;97615.13;4956903;28;20242;-92
2023/03/05 00:14:57;;;;;;;4.10;3.70;;;;;;;18.51;43.25;97520.31;4965038;28;20289;-91
2023/03/05 00:17:24;;;;;;;4.10;3.70;;;;;;;18.17;43.33;97486.63;4997320;28;20214;-92
2023/03/05 00:19:50;;;;;;;4.23;3.83;;;;;;;18.74;43.11;97557.75;4969670;28;20305;-92
2023/03/05 00:22:17;;;;;;;3.90;3.50;;;;;;;18.64;43.28;97537.81;4955164;28;20257;-92
2023/03/05 00:24:43;;;;;;;4.60;4.07;;;;;;;18.45;43.43;97506.47;4954650;28;20213;-92
2023/03/05 00:27:10;;;;;;;4.30;3.90;;;;;;;19.31;43.21;97656.94;4953226;28;20560;-92
2023/03/05 00:29:36;;;;;;;4.17;3.77;;;;;;;19.15;43.53;97633.25;4977416;28;20203;-92
2023/03/05 00:32:03;;;;;;;4.40;4.00;;;;;;;18.68;43.15;97542.22;4964734;28;20222;-92
2023/03/05 00:34:30;;;;;;;4.70;4.20;;;;;;;19.24;43.24;97652.34;4956563;28;20286;-92
2023/03/05 00:36:57;;;;;;;4.43;4.03;;;;;;;19.27;43.26;97637.22;4980629;28;20260;-92
2023/03/05 00:39:23;;;;;;;4.17;3.77;;;;;;;18.56;43.38;97511.19;4996224;28;20273;-93
2023/03/05 00:41:50;;;;;;;4.80;4.20;;;;;;;18.62;43.14;97534.34;4963456;28;20593;-92
2023/03/05 00:44:17;;;;;;;3.67;3.33;;;;;;;18.56;43.09;97503.53;4964680;28;20237;-92
2023/03/05 00:46:43;;;;;;;3.90;3.60;;;;;;;18.20;43.62;97449.47;4980171;28;20202;-92
2023/03/05 00:49:10;;;;;;;4.00;3.57;;;;;;;18.38;43.47;97469.72;4988134;28;20199;-92
2023/03/05 00:51:36;;;;;;;4.07;3.70;;;;;;;18.37;43.25;97469.63;4970917;28;20312;-92
2023/03/05 00:54:04;;;;;;;4.90;4.40;;;;;;;19.27;43.11;97626.19;4974612;28;20737;-91
2023/03/05 00:56:30;;;;;;;4.57;4.17;;;;;;;18.93;43.03;97569.56;5010315;28;20285;-92
2023/03/05 00:58:57;;;;;;;4.33;3.93;;;;;;;18.67;43.11;97526.88;4988760;28;20821;-93
2023/03/05 01:01:23;;;;;;;4.40;3.90;;;;;;;18.06;43.10;97409.03;4964098;28;20221;-94
2023/03/05 01:03:50;;;;;;;4.80;4.30;;;;;;;19.32;43.08;97628.09;4977597;28;20210;-92
2023/03/05 01:06:17;;;;;;;4.13;3.73;;;;;;;19.06;43.10;97574.31;4973170;28;20688;-93
2023/03/05 01:08:43;;;;;;;4.77;4.37;;;;;;;18.65;43.14;97509.00;4962394;28;20226;-92
2023/03/05 01:11:10;;;;;;;4.30;3.90;;;;;;;18.43;43.10;97459.72;4976049;28;20207;-92
2023/03/05 01:13:37;;;;;;;4.43;4.03;;;;;;;18.33;43.27;97443.22;4977197;28;20285;-92
2023/03/05 01:16:03;;;;;;;4.73;4.23;;;;;;;18.54;43.24;97472.09;4973283;28;20581;-91
2023/03/05 01:18:30;;;;;;;4.83;4.10;;;;;;;18.35;43.25;97440.75;4979668;28;20214;-92
2023/03/05 01:20:56;;;;;;;4.27;3.87;;;;;;;18.82;43.30;97523.28;4979729;28;20213;-92
2023/03/05 01:23:23;;;;;;;4.00;3.63;;;;;;;18.91;43.25;97543.13;4979667;28;20312;-92
2023/03/05 01:25:57;;;;;;;4.60;4.07;;;;;;;18.95;43.32;97538.22;4969536;28;20263;-92
2023/03/05 01:28:24;;;;;;;4.93;4.43;;;;;;;18.67;43.28;97481.94;4963948;28;20253;-92
2023/03/05 01:30:50;;;;;;;4.77;4.23;;;;;;;19.31;43.29;97626.34;4979504;28;20289;-92
2023/03/05 01:33:17;;;;;;;4.13;3.80;;;;;;;19.11;43.32;97580.47;4960361;28;20222;-91
2023/03/05 01:35:47;;;;;;;4.40;4.00;;;;;;;18.76;43.19;97499.25;4960010;28;20202;-92
2023/03/05 01:38:14;;;;;;;4.80;4.33;;;;;;;18.70;43.11;97499.00;4962610;28;20210;-92
2023/03/05 01:40:41;;;;;;;4.33;3.93;;;;;;;18.82;43.40;97512.22;4962402;28;20205;-92
2023/03/05 01:43:10;;;;;;;5.63;4.33;;;;;;;19.31;43.39;97584.72;4972603;28;20233;-93
2023/03/05 01:45:37;;;;;;;4.50;4.03;;;;;;;18.42;43.11;97425.81;4995203;28;20662;-92
2023/03/05 01:48:04;;;;;;;4.43;4.03;;;;;;;18.65;43.12;97490.34;4972311;28;20203;-92
2023/03/05 01:50:30;;;;;;;4.60;4.20;;;;;;;18.21;43.35;97386.75;4975225;28;20206;-92
2023/03/05 01:53:01;;;;;;;4.90;4.50;;;;;;;18.77;43.14;97489.13;4962643;28;20277;-92
2023/03/05 01:55:28;;;;;;;4.97;4.40;;;;;;;19.01;42.98;97530.81;4977854;28;20576;-92
2023/03/05 01:57:58;;;;;;;4.10;3.70;;;;;;;19.11;43.47;97557.53;4954863;28;20217;-91
2023/03/05 02:00:28;;;;;;;4.43;4.03;;;;;;;19.30;43.21;97576.19;4957352;28;20234;-93
2023/03/05 02:02:55;;;;;;;5.10;4.50;;;;;;;18.54;43.26;97444.09;4994335;28;20230;-92
2023/03/05 02:05:25;;;;;;;4.67;4.17;;;;;;;18.88;43.33;97505.72;4956660;28;20203;-92
2023/03/05 02:07:56;;;;;;;5.30;4.30;;;;;;;18.47;43.23;97419.19;4976862;28;20682;-92
2023/03/05 02:10:25;;;;;;;4.30;3.90;;;;;;;18.92;43.24;97504.16;4978842;28;20201;-92
2023/03/05 02:12:52;;;;;;;4.50;4.10;;;;;;;18.74;43.11;97466.09;4962620;28;20260;-92
2023/03/05 02:15:19;;;;;;;7.03;5.00;;;;;;;18.29;43.09;97381.97;4975314;28;20250;-92
2023/03/05 02:17:45;;;;;;;5.23;4.50;;;;;;;18.23;43.29;97382.59;4992144;28;20253;-90
2023/03/05 02:20:14;;;;;;;5.17;4.70;;;;;;;18.48;43.01;97426.06;4962480;28;20230;-92
2023/03/05 02:22:41;;;;;;;5.60;4.57;;;;;;;18.60;43.15;97441.81;4951038;28;20245;-92
2023/03/05 02:25:34;;;;;;;5.17;4.37;;;;;;;19.31;43.19;97547.38;4975370;28;20245;-92
2023/03/05 02:28:27;;;;;;;5.27;4.77;;;;;;;19.29;43.18;97538.78;4975421;28;20198;-90
2023/03/05 02:30:53;;;;;;;4.87;4.40;;;;;;;18.41;43.15;97398.59;4978471;28;20206;-93
2023/03/05 02:33:20;;;;;;;4.80;4.40;;;;;;;18.43;43.11;97396.13;4954897;28;20222;-92
2023/03/05 02:35:46;;;;;;;4.40;4.00;;;;;;;18.67;43.08;97431.03;4962492;28;20230;-92
2023/03/05 02:38:14;;;;;;;4.40;4.00;;;;;;;19.12;43.18;97504.09;4978318;28;20206;-92
2023/03/05 02:40:41;;;;;;;4.73;4.20;;;;;;;19.26;43.20;97522.47;4994467;28;20293;-92
2023/03/05 02:43:08;;;;;;;4.80;4.10;;;;;;;19.08;43.29;97492.06;4975081;28;20694;-92
2023/03/05 02:45:34;;;;;;;4.70;4.20;;;;;;;19.11;43.19;97493.84;4994492;28;20665;-92
2023/03/05 02:48:01;;;;;;;5.20;4.70;;;;;;;18.45;43.31;97387.75;4961914;28;20265;-92
2023/03/05 02:50:27;;;;;;;4.97;4.47;;;;;;;18.38;43.11;97356.94;4986352;28;20252;-93
2023/03/05 02:52:54;;;;;;;5.27;4.47;;;;;;;18.62;42.88;97398.59;4959704;28;20269;-93
2023/03/05 02:55:20;;;;;;;4.87;4.43;;;;;;;18.69;43.56;97413.28;4960708;28;20209;-92
2023/03/05 02:57:47;;;;;;;5.10;4.60;;;;;;;18.74;43.12;97420.28;4962026;28;20657;-92
2023/03/05 03:00:14;;;;;;;5.97;4.33;;;;;;;19.07;43.18;97481.84;4974985;28;20230;-92
2023/03/05 03:02:41;;;;;;;4.60;4.20;;;;;;;18.47;43.31;97375.09;4977909;28;20244;-92
2023/03/05 03:05:08;;;;;;;5.10;4.23;;;;;;;18.47;43.30;97375.09;4987520;28;20229;-92
2023/03/05 03:07:35;;;;;;;4.63;4.23;;;;;;;18.31;43.14;97340.53;5020950;23;20229;-89
2023/03/05 03:10:03;;;;;;;4.97;4.47;;;;;;;18.33;43.17;97340.59;5016991;28;20226;-90
2023/03/05 03:12:29;;;;;;;4.90;4.50;;;;;;;18.40;43.27;97356.19;5032646;28;20208;-88
2023/03/05 03:14:56;;;;;;;4.57;4.17;;;;;;;19.04;43.22;97456.25;5032160;28;20241;-90
2023/03/05 03:17:23;;;;;;;5.03;4.37;;;;;;;17.65;43.31;97214.16;5011457;28;20219;-90
2023/03/05 03:19:49;;;;;;;5.17;4.67;;;;;;;18.13;42.95;97311.81;5002776;28;20227;-89
2023/03/05 03:22:16;;;;;;;5.47;4.50;;;;;;;18.81;43.15;97404.44;5010542;28;20213;-89
2023/03/05 03:24:42;;;;;;;6.43;4.33;;;;;;;18.75;43.36;97401.66;5001677;28;20258;-89
2023/03/05 03:27:09;;;;;;;4.80;4.40;;;;;;;17.93;43.22;97261.88;5005667;28;20230;-89
2023/03/05 03:29:36;;;;;;;5.23;4.73;;;;;;;18.57;43.05;97364.47;5001525;28;20216;-89
2023/03/05 03:32:03;;;;;;;4.63;4.20;;;;;;;17.87;43.18;97247.25;5010769;28;20229;-89
2023/03/05 03:34:30;;;;;;;4.93;4.53;;;;;;;18.49;43.31;97343.81;5007214;28;20693;-89
2023/03/05 03:36:56;;;;;;;4.10;3.80;;;;;;;17.84;43.11;97234.41;5004795;28;20255;-89
2023/03/05 03:39:24;;;;;;;6.13;4.40;;;;;;;18.79;43.06;97395.00;5011310;28;20233;-89
2023/03/05 03:41:51;;;;;;;4.57;4.17;;;;;;;18.81;43.37;97389.16;5012540;28;20231;-89
2023/03/05 03:44:18;;;;;;;5.57;4.57;;;;;;;18.87;43.12;97399.59;5001839;28;20204;-90
2023/03/05 03:46:45;;;;;;;4.40;4.00;;;;;;;19.11;43.10;97442.91;5011839;28;20223;-89
2023/03/05 03:49:22;;;;;;;4.57;4.17;;;;;;;17.78;43.16;97224.00;5000020;28;20255;-89
2023/03/05 03:51:49;;;;;;;4.80;4.30;;;;;;;18.87;43.22;97397.03;5018888;28;20207;-89
2023/03/05 03:54:16;;;;;;;5.20;4.70;;;;;;;18.78;43.07;97378.00;4983141;28;20218;-90
2023/03/05 03:56:43;;;;;;;5.00;4.40;;;;;;;18.33;43.22;97299.88;5013217;28;20266;-89
2023/03/05 03:59:10;;;;;;;5.67;4.83;;;;;;;17.69;43.15;97188.09;5016052;28;20262;-89
2023/03/05 04:01:36;;;;;;;6.57;4.87;;;;;;;18.80;43.21;97379.78;5004969;28;20242;-90
2023/03/05 04:04:03;;;;;;;5.03;4.30;;;;;;;18.79;43.13;97380.59;5010155;28;20226;-89
2023/03/05 04:06:30;;;;;;;4.80;4.30;;;;;;;19.32;43.13;97471.78;4999876;28;20262;-90
2023/03/05 04:08:57;;;;;;;4.97;4.23;;;;;;;18.00;43.16;97253.69;5014710;28;20774;-90
2023/03/05 04:11:23;;;;;;;5.73;5.13;;;;;;;18.81;43.20;97381.53;5005357;28;20231;-89
2023/03/05 04:13:50;;;;;;;4.23;3.80;;;;;;;17.81;42.96;97200.38;5016986;28;20216;-88
2023/03/05 04:16:18;;;;;;;5.27;4.77;;;;;;;18.49;42.34;97318.34;5005740;28;20230;-90
2023/03/05 04:18:44;;;;;;;5.10;4.60;;;;;;;18.10;43.16;97250.69;5006464;28;20202;-89
2023/03/05 04:21:11;;;;;;;4.80;4.40;;;;;;;17.40;43.15;97127.59;5007725;28;20701;-89
2023/03/05 04:23:38;;;;;;;5.20;4.70;;;;;;;18.94;43.21;97393.03;5003108;28;20231;-89
2023/03/05 04:26:05;;;;;;;5.03;4.53;;;;;;;19.32;43.11;97459.03;5004724;28;20454;-89
2023/03/05 04:28:31;;;;;;;4.90;4.50;;;;;;;18.01;43.10;97246.13;5005408;28;20200;-90
2023/03/05 04:30:58;;;;;;;5.50;4.63;;;;;;;18.82;42.95;97370.53;5007583;28;20199;-89
2023/03/05 04:33:24;;;;;;;5.20;4.33;;;;;;;18.80;43.29;97369.59;5010323;28;20211;-89
2023/03/05 04:35:51;;;;;;;4.77;4.37;;;;;;;17.80;43.06;97189.34;5004199;28;20195;-89
2023/03/05 04:38:18;;;;;;;6.13;5.10;;;;;;;18.67;43.04;97343.63;5008822;28;20208;-89
2023/03/05 04:40:44;;;;;;;4.93;4.40;;;;;;;17.70;43.12;97171.13;5005852;28;20226;-90
2023/03/05 04:43:11;;;;;;;4.60;4.20;;;;;;;19.13;43.09;97414.13;5000155;28;20242;-89
2023/03/05 04:45:41;;;;;;;5.30;4.80;;;;;;;18.49;43.06;97308.19;5001714;28;20203;-89
2023/03/05 04:48:08;;;;;;;4.70;4.30;;;;;;;18.24;43.19;97268.19;5011348;28;20204;-89
2023/03/05 04:50:35;;;;;;;4.73;4.33;;;;;;;18.34;43.07;97279.59;5007066;28;20204;-90
2023/03/05 04:53:01;;;;;;;5.07;4.50;;;;;;;18.40;42.87;97284.06;5006657;28;20314;-89
2023/03/05 04:55:28;;;;;;;5.17;4.67;;;;;;;18.75;43.13;97345.66;4997807;28;20276;-89
2023/03/05 04:57:54;;;;;;;5.20;4.70;;;;;;;18.79;43.30;97347.50;5003153;28;20241;-88
2023/03/05 05:00:21;;;;;;;5.70;5.10;;;;;;;17.89;43.07;97189.69;5014149;28;20250;-89
2023/03/05 05:02:49;;;;;;;5.23;4.73;;;;;;;18.12;43.12;97227.03;5005864;28;20206;-89
2023/03/05 05:05:21;;;;;;;4.90;4.40;;;;;;;17.94;43.12;97198.38;4996076;28;20217;-89
2023/03/05 05:07:48;;;;;;;5.40;4.90;;;;;;;18.81;43.15;97340.81;5001568;28;20238;-89
2023/03/05 05:10:15;;;;;;;5.33;4.20;;;;;;;17.87;43.05;97186.25;4995739;28;20230;-90
2023/03/05 05:12:41;;;;;;;4.73;4.23;;;;;;;17.61;43.04;97135.22;5014422;28;20225;-89
2023/03/05 05:15:08;;;;;;;5.47;4.73;;;;;;;17.58;43.00;97125.81;4995998;28;20246;-89
2023/03/05 05:17:35;;;;;;;5.23;4.73;;;;;;;18.37;42.98;97264.47;5010041;28;20254;-89
2023/03/05 05:20:05;;;;;;;4.70;4.30;;;;;;;18.38;42.88;97256.03;4999499;28;20281;-89
2023/03/05 05:22:32;;;;;;;4.90;4.40;;;;;;;18.37;42.52;97255.94;5001351;28;20294;-90
2023/03/05 05:24:59;;;;;;;5.20;4.70;;;;;;;18.79;42.83;97326.25;5003170;28;20211;-89
2023/03/05 05:27:25;;;;;;;5.90;5.20;;;;;;;18.36;42.77;97259.28;4994493;28;20231;-89
2023/03/05 05:29:52;;;;;;;5.10;4.70;;;;;;;17.57;42.80;97121.53;4997329;28;20263;-89
2023/03/05 05:32:22;;;;;;;5.13;4.63;;;;;;;18.73;42.84;97326.91;5010802;28;20214;-90
2023/03/05 05:34:54;;;;;;;5.70;5.10;;;;;;;17.63;42.50;97139.56;5004036;28;20222;-90
2023/03/05 05:37:21;;;;;;;5.93;5.33;;;;;;;18.80;42.82;97339.03;4995712;28;20207;-89
2023/03/05 05:39:49;;;;;;;5.67;5.07;;;;;;;17.87;42.86;97177.75;5011013;28;20210;-89
2023/03/05 05:42:24;;;;;;;5.40;4.90;;;;;;;18.83;42.85;97351.88;5011196;28;20223;-89
2023/03/05 05:44:51;;;;;;;6.60;5.27;;;;;;;18.78;43.01;97340.69;4995243;28;20263;-89
2023/03/05 05:47:18;;;;;;;6.03;5.27;;;;;;;18.81;42.98;97335.72;4996475;28;20224;-89
2023/03/05 05:49:44;;;;;;;5.97;4.90;;;;;;;19.03;42.79;97383.19;4998864;28;20207;-89
2023/03/05 05:52:12;;;;;;;5.30;4.80;;;;;;;18.23;42.89;97248.66;5020486;28;20198;-89
2023/03/05 05:54:38;;;;;;;5.67;5.17;;;;;;;17.53;42.52;97116.28;5005075;28;20193;-90
2023/03/05 05:57:05;;;;;;;5.53;5.00;;;;;;;18.27;42.84;97245.41;5007681;28;20702;-90
2023/03/05 05:59:32;;;;;;;7.13;5.67;;;;;;;19.09;42.56;97391.03;4995898;28;20215;-89
2023/03/05 06:01:58;;;;;;;6.43;5.50;;;;;;;18.01;42.38;97210.53;5011777;28;20221;-89
2023/03/05 06:04:25;;;;;;;5.37;4.87;;;;;;;17.95;42.73;97196.69;5009720;28;20202;-89
2023/03/05 06:06:51;;;;;;;6.03;5.43;;;;;;;19.23;43.00;97406.03;5007117;28;20230;-89
2023/03/05 06:09:18;;;;;;;5.77;5.27;;;;;;;17.82;42.53;97180.09;4995479;28;20200;-89
2023/03/05 06:11:44;;;;;;;6.27;5.23;;;;;;;18.13;43.01;97213.53;5005139;28;20207;-89
2023/03/05 06:14:11;;;;;;;6.13;5.03;;;;;;;17.92;42.91;97173.72;4992067;28;20263;-89
2023/03/05 06:16:38;;;;;;;5.37;4.80;;;;;;;18.58;42.78;97278.00;5005853;28;20706;-89
2023/03/05 06:19:05;;;;;;;6.40;5.40;;;;;;;18.82;42.85;97311.97;5009455;28;20210;-89
2023/03/05 06:21:31;;;;;;;5.77;5.17;;;;;;;19.39;42.84;97408.34;4992225;28;20219;-89
2023/03/05 06:23:58;;;;;;;6.03;5.37;;;;;;;18.76;42.81;97305.78;4991779;28;20208;-89
2023/03/05 06:26:24;;;;;;;5.43;4.90;;;;;;;18.00;42.58;97169.78;4994470;28;20295;-89
2023/03/05 06:28:51;;;;;;;7.07;5.70;;;;;;;18.88;42.61;97335.09;4990992;28;20242;-89
2023/03/05 06:31:24;;;;;;;6.50;5.37;;;;;;;18.90;42.57;97337.72;4993658;28;20252;-89
2023/03/05 06:33:51;;;;;;;5.97;5.37;;;;;;;19.42;42.67;97423.75;5002275;28;20257;-89
2023/03/05 06:36:19;;;;;;;6.13;5.30;;;;;;;18.89;42.72;97333.44;4996732;28;20254;-89
2023/03/05 06:38:45;;;;;;;6.03;5.43;;;;;;;17.47;42.82;97101.66;4995641;28;20269;-89
2023/03/05 06:41:16;;;;;;;6.40;5.80;;;;;;;18.97;42.81;97347.28;4989102;28;20278;-89
2023/03/05 06:43:43;;;;;;;6.10;5.50;;;;;;;17.80;42.43;97156.31;5013211;28;20764;-89
2023/03/05 06:46:14;;;;;;;6.23;5.23;;;;;;;19.45;42.55;97431.50;5001744;28;20242;-90
2023/03/05 06:48:42;;;;;;;5.90;5.23;;;;;;;18.59;42.62;97276.31;4997751;28;20187;-89
2023/03/05 06:51:16;;;;;;;6.37;5.60;;;;;;;18.02;42.62;97191.03;5010014;28;20207;-89
2023/03/05 06:53:43;;;;;;;5.93;5.23;;;;;;;18.99;42.38;97345.69;5003653;28;20209;-89
2023/03/05 06:56:09;;;;;;;6.00;5.40;;;;;;;19.48;42.48;97423.97;4998698;28;20234;-89
2023/03/05 06:58:36;;;;;;;5.83;4.87;;;;;;;19.31;42.34;97391.94;4996751;28;20234;-89
2023/03/05 07:01:06;;;;;;;6.40;5.80;;;;;;;17.99;42.59;97165.50;4997230;28;20231;-89
2023/03/05 07:03:33;;;;;;;7.27;5.60;;;;;;;18.98;42.53;97338.88;5003677;28;20207;-89
2023/03/05 07:06:04;;;;;;;6.30;5.70;;;;;;;19.35;42.47;97393.78;4995918;28;20211;-89
2023/03/05 07:08:31;;;;;;;6.17;5.57;;;;;;;19.00;42.36;97330.47;5002788;28;20230;-90
2023/03/05 07:10:58;;;;;;;6.40;5.67;;;;;;;18.52;42.40;97243.81;4997160;28;20207;-89
2023/03/05 07:13:25;;;;;;;6.67;5.63;;;;;;;18.29;42.41;97212.41;4996547;28;20276;-89
2023/03/05 07:15:51;;;;;;;6.17;5.57;;;;;;;19.04;42.36;97339.09;4990017;28;20203;-89
2023/03/05 07:18:18;;;;;;;6.30;5.67;;;;;;;18.95;42.52;97321.78;5004915;28;20199;-89
2023/03/05 07:20:45;;;;;;;6.13;5.53;;;;;;;18.49;42.23;97247.13;5001549;28;20265;-89
2023/03/05 07:23:11;;;;;;;6.70;5.97;;;;;;;18.88;42.26;97312.19;4992039;28;20229;-89
2023/03/05 07:25:38;;;;;;;6.40;5.67;;;;;;;18.64;42.42;97265.47;4993371;28;20204;-89
2023/03/05 07:28:05;;;;;;;7.43;6.00;;;;;;;18.09;42.43;97180.31;5005164;28;20428;-89
2023/03/05 07:30:33;;;;;;;6.93;5.67;;;;;;;19.50;42.35;97404.50;4996868;28;20286;-89
2023/03/05 07:33:00;;;;;;;7.17;5.60;;;;;;;19.03;42.23;97333.13;4998363;28;20301;-90
2023/03/05 07:35:27;;;;;;;6.30;5.57;;;;;;;18.27;42.45;97203.00;5004847;28;20231;-89
2023/03/05 07:37:54;;;;;;;7.20;5.60;;;;;;;19.15;42.85;97343.75;4990012;28;20318;-89
2023/03/05 07:40:21;;;;;;;6.57;5.80;;;;;;;18.78;42.37;97279.59;5003830;28;20223;-89
2023/03/05 07:42:48;;;;;;;6.60;5.80;;;;;;;19.10;42.39;97337.59;4998634;28;20212;-89
2023/03/05 07:45:14;;;;;;;6.83;5.57;;;;;;;18.60;42.44;97242.41;4990088;28;20224;-89
2023/03/05 07:47:41;;;;;;;6.13;5.47;;;;;;;19.31;42.28;97369.00;4990523;28;20227;-89
2023/03/05 07:50:08;;;;;;;6.07;5.43;;;;;;;18.16;42.56;97167.88;4991040;28;20238;-89
2023/03/05 07:52:34;;;;;;;6.30;5.70;;;;;;;19.05;42.39;97318.78;5006523;28;20207;-89
2023/03/05 07:55:01;;;;;;;6.27;5.67;;;;;;;18.23;42.38;97185.06;4996593;28;20208;-89
2023/03/05 07:57:28;;;;;;;6.67;5.87;;;;;;;18.18;42.18;97173.00;4995180;28;20223;-89
2023/03/05 07:59:55;;;;;;;6.83;5.90;;;;;;;18.36;42.50;97199.13;4996723;28;20211;-89
2023/03/05 08:02:21;;;;;;;6.77;5.97;;;;;;;18.60;41.80;97232.22;4999087;28;20203;-89
2023/03/05 08:04:48;;;;;;;6.67;5.70;;;;;;;18.91;42.24;97291.06;4995409;28;20271;-89
2023/03/05 08:07:15;;;;;;;6.93;6.03;;;;;;;19.32;42.33;97357.09;5002687;28;20240;-89
2023/03/05 08:09:41;;;;;;;6.70;5.90;;;;;;;18.36;42.02;97195.69;4998342;28;20237;-89
2023/03/05 08:12:09;;;;;;;6.27;5.57;;;;;;;18.24;42.22;97171.53;4992511;28;20211;-89
2023/03/05 08:14:36;;;;;;;6.17;5.27;;;;;;;18.51;42.40;97211.53;4994630;28;20282;-89
2023/03/05 08:17:03;;;;;;;6.73;6.00;;;;;;;18.06;42.27;97131.88;5017564;28;20258;-89
2023/03/05 08:19:30;;;;;;;6.33;5.73;;;;;;;19.06;42.07;97310.31;5000593;28;20299;-89
2023/03/05 08:21:56;;;;;;;6.60;5.47;;;;;;;19.08;42.38;97308.69;5010043;28;20285;-89
2023/03/05 08:24:28;;;;;;;6.00;5.40;;;;;;;18.00;42.21;97119.78;4992761;28;20242;-89
2023/03/05 08:26:56;;;;;;;7.23;6.37;;;;;;;18.41;42.45;97186.59;4998469;28;20239;-90
2023/03/05 08:29:22;;;;;;;6.03;5.40;;;;;;;19.02;42.48;97289.78;4996239;28;20330;-89
2023/03/05 08:31:50;;;;;;;7.30;6.20;;;;;;;18.11;42.19;97127.81;5001593;28;20226;-89
2023/03/05 08:34:16;;;;;;;7.03;5.70;;;;;;;18.94;42.46;97276.75;5001398;28;20305;-89
2023/03/05 08:36:43;;;;;;;5.97;5.40;;;;;;;18.57;42.34;97210.09;4994612;28;20703;-89
2023/03/05 08:39:10;;;;;;;6.73;5.70;;;;;;;19.37;42.34;97359.03;5002255;28;20667;-89
2023/03/05 08:41:37;;;;;;;6.03;5.43;;;;;;;18.10;42.28;97121.00;5000175;28;20215;-89
2023/03/05 08:44:03;;;;;;;6.70;5.67;;;;;;;19.14;42.33;97301.25;5001593;28;20295;-89
2023/03/05 08:46:30;;;;;;;6.47;5.80;;;;;;;18.61;42.20;97216.16;4991945;28;20283;-89
2023/03/05 08:48:56;;;;;;;6.07;5.47;;;;;;;19.07;41.65;97295.91;5000202;28;20221;-89
2023/03/05 08:51:26;;;;;;;6.63;5.93;;;;;;;18.79;42.02;97239.69;5000660;28;20184;-89
2023/03/05 08:53:54;;;;;;;7.03;6.20;;;;;;;19.09;42.27;97291.72;4998676;28;20265;-89
2023/03/05 08:56:20;;;;;;;6.77;5.60;;;;;;;19.09;42.22;97292.59;5008928;28;20295;-89
2023/03/05 08:58:47;;;;;;;6.57;5.80;;;;;;;18.93;41.67;97262.31;4992375;28;20208;-89
2023/03/05 09:01:13;;;;;;;6.67;5.90;;;;;;;19.53;42.31;97365.50;5002601;28;20229;-88
2023/03/05 09:03:40;;;;;;;7.60;6.37;;;;;;;19.08;42.33;97284.88;5005611;28;20214;-89
2023/03/05 09:06:08;;;;;;;6.33;5.60;;;;;;;18.89;42.45;97257.06;5025494;22;20212;-92
2023/03/05 09:08:34;;;;;;;6.53;5.80;;;;;;;18.72;42.12;97232.66;4963526;28;20217;-91
2023/03/05 09:11:02;;;;;;;6.17;5.57;;;;;;;19.03;42.10;97274.53;4979662;28;20210;-92
2023/03/05 09:13:28;;;;;;;7.40;6.40;;;;;;;19.24;42.19;97321.13;4976108;28;20203;-91
2023/03/05 09:15:59;;;;;;;7.13;6.07;;;;;;;19.13;42.42;97302.06;4977252;28;20207;-90
2023/03/05 09:18:26;;;;;;;6.50;5.57;;;;;;;18.76;42.26;97222.66;4974488;28;20611;-92
2023/03/05 09:20:53;;;;;;;6.97;6.13;;;;;;;19.37;42.29;97331.00;4969445;28;20231;-92
2023/03/05 09:23:19;;;;;;;7.63;6.40;;;;;;;19.10;42.33;97293.47;4978230;28;20285;-91
2023/03/05 09:25:46;;;;;;;7.17;6.07;;;;;;;19.41;42.21;97329.41;4969944;28;20207;-92
2023/03/05 09:28:12;;;;;;;7.33;5.83;;;;;;;19.23;42.10;97311.78;4993546;28;20245;-92
2023/03/05 09:30:39;;;;;;;6.13;5.53;;;;;;;19.51;42.11;97349.31;4976260;28;20194;-92
2023/03/05 09:33:05;;;;;;;7.73;6.50;;;;;;;18.99;41.65;97251.47;5012352;28;20210;-92
2023/03/05 09:35:35;;;;;;;6.47;5.70;;;;;;;18.77;42.02;97218.44;4986131;28;20203;-91
2023/03/05 09:38:02;;;;;;;6.20;5.60;;;;;;;19.10;42.26;97268.84;4972630;28;20235;-91
2023/03/05 09:40:32;;;;;;;6.37;5.70;;;;;;;19.60;42.25;97355.56;4969480;28;20661;-92
2023/03/05 09:43:17;;;;;;;7.17;6.17;;;;;;;19.61;42.36;97346.25;4991860;28;20206;-92
2023/03/05 09:45:55;;;;;;;6.50;5.60;;;;;;;18.84;42.21;97216.16;5007214;28;20206;-92
2023/03/05 09:48:35;;;;;;;7.20;5.97;;;;;;;19.60;42.34;97347.91;4991436;28;20210;-92
2023/03/05 09:51:02;;;;;;;7.30;6.10;;;;;;;18.98;42.31;97245.50;4980449;28;20207;-89
2023/03/05 09:53:39;;;;;;;6.53;5.80;;;;;;;19.57;42.15;97342.72;4957055;28;20664;-91
2023/03/05 09:56:11;;;;;;;7.00;5.80;;;;;;;19.01;42.51;97249.84;5002346;28;20232;-92
2023/03/05 09:58:42;;;;;;;5.90;4.97;;;;;;;19.00;42.38;97256.59;4967129;28;20290;-92
2023/03/05 10:01:14;;;;;;;6.40;5.80;;;;;;;19.33;42.62;97296.00;4984893;28;20333;-92
2023/03/05 10:03:59;;;;;;;6.17;5.57;;;;;;;19.20;42.12;97272.56;4954919;28;20214;-91
2023/03/05 10:06:29;;;;;;;6.60;5.70;;;;;;;17.83;42.21;97038.66;4994739;28;20230;-92
2023/03/05 10:09:02;;;;;;;6.30;5.53;;;;;;;19.60;42.27;97335.16;4965599;28;20580;-92
2023/03/05 10:11:53;;;;;;;7.13;5.80;;;;;;;19.59;42.25;97336.00;4994863;28;20202;-92
2023/03/05 10:14:24;;;;;;;6.77;5.67;;;;;;;19.10;42.50;97245.91;4988853;28;20199;-92
2023/03/05 10:17:04;;;;;;;7.40;5.77;;;;;;;19.59;42.72;97336.00;4994781;28;20309;-92
2023/03/05 10:19:40;;;;;;;6.57;5.60;;;;;;;19.60;42.34;97324.97;4976059;28;20210;-91
2023/03/05 10:22:23;;;;;;;7.03;5.63;;;;;;;19.60;42.37;97327.53;4986428;28;20308;-92
2023/03/05 10:25:13;;;;;;;6.40;5.20;;;;;;;19.25;42.57;97260.88;4994672;28;20308;-92
2023/03/05 10:27:51;;;;;;;6.67;5.80;;;;;;;19.61;42.34;97323.31;4973807;28;20316;-92
2023/03/05 10:30:44;;;;;;;7.00;6.30;;;;;;;19.60;42.39;97319.88;4976266;28;20678;-92
2023/03/05 10:33:13;;;;;;;7.07;6.00;;;;;;;19.60;42.26;97319.03;5011478;28;20206;-92
2023/03/05 10:36:04;;;;;;;6.43;5.70;;;;;;;19.61;42.29;97308.00;4989435;28;20202;-91
2023/03/05 10:38:44;;;;;;;5.60;5.00;;;;;;;19.60;42.51;97306.28;4994239;28;20240;-91
2023/03/05 10:41:53;;;;;;;8.20;5.47;;;;;;;19.35;42.58;97262.94;4986209;28;20249;-91
2023/03/05 10:44:55;;;;;;;6.30;5.47;;;;;;;19.58;42.91;97300.25;4951373;28;20210;-92
2023/03/05 10:47:40;;;;;;;6.27;5.47;;;;;;;19.56;42.64;97302.75;4976069;28;20226;-92
2023/03/05 10:50:19;;;;;;;6.30;5.37;;;;;;;18.98;42.70;97197.09;4986103;28;20257;-91
2023/03/05 10:52:50;;;;;;;6.03;5.33;;;;;;;19.43;42.73;97269.16;4974228;28;20298;-92
2023/03/05 10:55:19;;;;;;;6.30;5.43;;;;;;;19.54;42.76;97286.53;4978164;28;20203;-92
2023/03/05 10:57:46;;;;;;;6.20;5.53;;;;;;;19.33;42.89;97244.22;4999110;28;20322;-91
2023/03/05 11:00:21;;;;;;;5.83;5.23;;;;;;;17.83;42.74;96983.56;4948413;28;20203;-90
2023/03/05 11:03:08;;;;;;;5.73;5.07;;;;;;;19.52;42.72;97274.56;4981841;28;20309;-91
2023/03/05 11:05:39;;;;;;;5.70;5.10;;;;;;;18.47;42.94;97096.06;4974425;28;20204;-92
2023/03/05 11:08:24;;;;;;;5.70;4.87;;;;;;;19.51;42.87;97276.25;4993815;28;20257;-92
2023/03/05 11:11:09;;;;;;;5.27;4.77;;;;;;;18.82;43.13;97137.97;5011223;28;20202;-92
2023/03/05 11:13:40;;;;;;;6.70;5.03;;;;;;;18.86;43.07;97155.94;4962963;28;20301;-92
2023/03/05 11:16:09;;;;;;;6.20;5.17;;;;;;;19.04;42.95;97187.13;4978029;28;20202;-89
2023/03/05 11:18:36;;;;;;;5.63;5.03;;;;;;;18.42;42.97;97084.00;4974379;28;20210;-92
2023/03/05 11:21:10;;;;;;;5.73;5.13;;;;;;;19.12;43.19;97195.03;4960843;28;20222;-91
2023/03/05 11:23:37;;;;;;;5.67;4.83;;;;;;;19.08;43.20;97180.47;4974676;28;20230;-91
2023/03/05 11:26:12;;;;;;;5.40;4.90;;;;;;;19.49;42.98;97244.75;4956051;28;20203;-92
2023/03/05 11:28:51;;;;;;;5.40;4.90;;;;;;;19.47;43.19;97246.38;4990995;28;20650;-91
2023/03/05 11:31:17;;;;;;;5.77;4.87;;;;;;;19.46;43.02;97244.66;5015175;28;20295;-89
2023/03/05 11:33:53;;;;;;;4.90;4.50;;;;;;;19.48;43.28;97245.56;5015385;28;20713;-91
2023/03/05 11:36:27;;;;;;;5.30;4.80;;;;;;;19.47;42.97;97235.31;4997502;28;20321;-91
2023/03/05 11:38:55;;;;;;;5.03;4.53;;;;;;;19.47;43.14;97232.75;4997293;28;20209;-92
2023/03/05 11:41:48;;;;;;;5.73;5.13;;;;;;;18.91;42.97;97139.16;4980070;28;20717;-92